Terminal Aerodrome Forecast
Issued by NWS Blacksburg, VA

Current Version | Previous Version | Graphics & Text | Print | Product List | Glossary On
Versions: 1 2 3 4 5 6 7 8 9 10 11 12 13 14 15 16 17 18 19 20 21 22 23 24 25 26 27 28 29 30 31 32 33
000
FTUS41 KRNK 232047 AAA
TAFBLF
TAF AMD
KBLF 232047Z 2321/2418 08007KT 6SM -RA SCT006 OVC010
      TEMPO 2321/2324 5SM RA OVC006
     FM240000 11009KT 3SM RA OVC006
     FM240900 09010KT P6SM VCSH OVC003
     FM241200 09009KT 3SM -SHRA OVC008
     FM241600 10010KT P6SM VCSH OVC010=

USA.gov is the U.S. government's official web portal to all federal, state and local government web resources and services.